createdAt,value
2023-07-06T00:00:18.234Z,63.85
2023-07-06T00:02:45.916Z,64.76
2023-07-06T00:05:13.350Z,62.96
2023-07-06T00:07:40.943Z,63.18
2023-07-06T00:10:08.905Z,63.57
2023-07-06T00:12:36.350Z,64.66
2023-07-06T00:15:05.391Z,65.69
2023-07-06T00:17:33.358Z,66.08
2023-07-06T00:20:00.848Z,64.11
2023-07-06T00:22:28.336Z,63.60
2023-07-06T00:24:58.830Z,63.49
2023-07-06T00:27:26.993Z,63.90
2023-07-06T00:30:13.033Z,63.50
2023-07-06T00:32:40.715Z,63.42
2023-07-06T00:35:11.333Z,63.52
2023-07-06T00:37:39.723Z,63.31
2023-07-06T00:40:09.482Z,64.54
2023-07-06T00:42:39.090Z,63.54
2023-07-06T00:45:11.741Z,63.01
2023-07-06T00:47:50.850Z,62.59
2023-07-06T00:50:25.078Z,64.95
2023-07-06T00:53:00.535Z,63.90
2023-07-06T00:55:31.214Z,63.12
2023-07-06T00:58:04.760Z,61.47
2023-07-06T01:00:32.437Z,63.29
2023-07-06T01:03:02.549Z,64.20
2023-07-06T01:05:31.658Z,63.84
2023-07-06T01:08:08.371Z,63.78
2023-07-06T01:10:35.867Z,63.07
2023-07-06T01:13:05.682Z,64.19
2023-07-06T01:15:39.206Z,65.25
2023-07-06T01:18:21.574Z,65.86
2023-07-06T01:20:57.247Z,65.16
2023-07-06T01:23:41.904Z,63.38
2023-07-06T01:26:14.621Z,62.75
2023-07-06T01:29:04.860Z,63.16
2023-07-06T01:31:43.763Z,62.75
2023-07-06T01:34:29.338Z,62.71
2023-07-06T01:37:06.983Z,63.57
2023-07-06T01:39:34.714Z,64.33
2023-07-06T01:42:11.302Z,63.91
2023-07-06T01:44:41.755Z,63.01
2023-07-06T01:47:09.980Z,64.78
2023-07-06T01:49:37.725Z,64.45
2023-07-06T01:52:26.078Z,65.00
2023-07-06T01:55:01.917Z,65.30
2023-07-06T01:57:46.660Z,66.77
2023-07-06T02:00:24.147Z,66.61
2023-07-06T02:02:54.952Z,66.60
2023-07-06T02:05:23.284Z,65.82
2023-07-06T02:07:50.927Z,66.30
2023-07-06T02:10:20.122Z,67.02
2023-07-06T02:12:50.330Z,66.37
2023-07-06T02:15:21.668Z,66.11
2023-07-06T02:17:56.571Z,66.48
2023-07-06T02:20:24.535Z,66.34
2023-07-06T02:22:52.966Z,66.32
2023-07-06T02:25:22.473Z,65.83
2023-07-06T02:27:50.300Z,66.16
2023-07-06T02:30:18.509Z,66.07
2023-07-06T02:32:47.456Z,65.99
2023-07-06T02:35:15.001Z,64.72
2023-07-06T02:37:43.134Z,66.06
2023-07-06T02:40:12.157Z,66.28
2023-07-06T02:42:43.275Z,64.64
2023-07-06T02:45:11.588Z,64.96
2023-07-06T02:47:39.426Z,65.28
2023-07-06T02:50:12.626Z,65.78
2023-07-06T02:52:43.801Z,65.12
2023-07-06T02:55:11.500Z,65.87
2023-07-06T02:57:41.953Z,66.12
2023-07-06T03:00:15.865Z,65.35
2023-07-06T03:02:44.472Z,67.52
2023-07-06T03:05:12.912Z,67.32
2023-07-06T03:07:41.078Z,66.41
2023-07-06T03:10:10.132Z,66.14
2023-07-06T03:12:38.540Z,67.45
2023-07-06T03:15:07.316Z,66.48
2023-07-06T03:17:34.761Z,66.83
2023-07-06T03:20:04.364Z,65.19
2023-07-06T03:22:32.455Z,67.30
2023-07-06T03:25:20.643Z,67.78
2023-07-06T03:27:48.630Z,66.58
2023-07-06T03:30:19.818Z,64.71
2023-07-06T03:32:47.483Z,64.62
2023-07-06T03:35:15.700Z,65.16
2023-07-06T03:37:44.121Z,64.43
2023-07-06T03:40:12.349Z,65.18
2023-07-06T03:42:41.510Z,64.52
2023-07-06T03:45:09.794Z,63.48
2023-07-06T03:47:39.033Z,64.35
2023-07-06T03:50:10.862Z,64.05
2023-07-06T03:52:41.154Z,64.51
2023-07-06T03:55:14.571Z,63.46
2023-07-06T03:57:54.716Z,64.65
2023-07-06T04:00:30.237Z,64.21
2023-07-06T04:02:59.371Z,65.10
2023-07-06T04:05:33.785Z,65.22
2023-07-06T04:08:13.751Z,64.75
2023-07-06T04:10:41.999Z,65.42
2023-07-06T04:13:11.271Z,64.79
2023-07-06T04:15:41.294Z,65.52
2023-07-06T04:18:09.022Z,65.41
2023-07-06T04:20:36.956Z,65.29
2023-07-06T04:23:05.378Z,64.85
2023-07-06T04:25:34.866Z,65.33
2023-07-06T04:28:12.106Z,65.91
2023-07-06T04:30:46.801Z,64.05
2023-07-06T04:33:20.351Z,64.99
2023-07-06T04:35:52.822Z,65.15
2023-07-06T04:38:26.279Z,63.78
2023-07-06T04:40:53.905Z,63.40
2023-07-06T04:43:21.915Z,62.98
2023-07-06T04:45:49.549Z,63.63
2023-07-06T04:48:18.142Z,63.58
2023-07-06T04:50:47.025Z,63.77
2023-07-06T04:53:14.928Z,64.28
2023-07-06T04:55:42.310Z,63.30
2023-07-06T04:58:10.589Z,64.67
2023-07-06T05:00:40.828Z,63.60
2023-07-06T05:03:09.139Z,63.49
2023-07-06T05:05:41.710Z,64.60
2023-07-06T05:08:11.515Z,64.57
2023-07-06T05:10:39.386Z,63.15
2023-07-06T05:13:07.984Z,64.63
2023-07-06T05:15:37.461Z,65.03
2023-07-06T05:18:07.485Z,65.16
2023-07-06T05:20:35.020Z,64.32
2023-07-06T05:23:04.595Z,64.48
2023-07-06T05:25:32.256Z,64.71
2023-07-06T05:27:59.642Z,66.34
2023-07-06T05:30:28.411Z,66.41
2023-07-06T05:32:56.747Z,68.22
2023-07-06T05:35:24.849Z,69.26
2023-07-06T05:37:53.223Z,70.52
2023-07-06T05:40:21.131Z,69.73
2023-07-06T05:42:48.599Z,70.26
2023-07-06T05:45:16.128Z,69.68
2023-07-06T05:47:44.041Z,69.55
2023-07-06T05:50:11.724Z,69.42
2023-07-06T05:52:43.064Z,69.19
2023-07-06T05:55:10.803Z,70.45
2023-07-06T05:57:38.248Z,71.91
2023-07-06T06:00:11.715Z,75.21
2023-07-06T06:02:40.964Z,73.82
2023-07-06T06:05:09.307Z,74.21
2023-07-06T06:07:36.875Z,73.70
2023-07-06T06:10:04.898Z,73.48
2023-07-06T06:12:34.411Z,72.32
2023-07-06T06:15:02.627Z,72.76
2023-07-06T06:17:31.969Z,72.98
2023-07-06T06:19:59.440Z,72.18
2023-07-06T06:22:27.094Z,73.20
2023-07-06T06:24:54.841Z,72.49
2023-07-06T06:27:23.657Z,73.00
2023-07-06T06:29:51.051Z,72.22
2023-07-06T06:32:18.777Z,70.99
2023-07-06T06:34:46.856Z,71.10
2023-07-06T06:37:14.276Z,70.29
2023-07-06T06:39:42.027Z,70.58
2023-07-06T06:42:10.727Z,70.48
2023-07-06T06:44:41.456Z,68.57
2023-07-06T06:47:09.232Z,70.78
2023-07-06T06:49:36.685Z,70.65
2023-07-06T06:52:05.778Z,68.93
2023-07-06T06:54:34.588Z,67.54
2023-07-06T06:57:04.251Z,69.94
2023-07-06T06:59:34.155Z,68.42
2023-07-06T07:02:04.067Z,69.67
2023-07-06T07:04:32.556Z,69.81
2023-07-06T07:07:04.850Z,68.22
2023-07-06T07:09:33.578Z,71.12
2023-07-06T07:12:01.609Z,69.80
2023-07-06T07:14:31.155Z,68.87
2023-07-06T07:16:58.984Z,67.78
2023-07-06T07:19:29.583Z,67.74
2023-07-06T07:22:01.732Z,67.38
2023-07-06T07:24:33.669Z,65.75
2023-07-06T07:27:01.699Z,67.78
2023-07-06T07:29:30.129Z,67.54
2023-07-06T07:31:57.863Z,69.17
2023-07-06T07:34:28.451Z,67.77
2023-07-06T07:36:55.869Z,68.24
2023-07-06T07:39:24.304Z,68.68
2023-07-06T07:41:53.803Z,68.80
2023-07-06T07:44:22.681Z,66.39
2023-07-06T07:46:50.377Z,66.15
2023-07-06T07:49:19.014Z,66.22
2023-07-06T07:51:47.354Z,67.89
2023-07-06T07:54:15.046Z,69.76
2023-07-06T07:56:44.082Z,67.85
2023-07-06T07:59:11.790Z,67.08
2023-07-06T08:01:39.825Z,68.16
2023-07-06T08:04:07.947Z,65.53
2023-07-06T08:06:35.385Z,65.97
2023-07-06T08:09:04.516Z,67.70
2023-07-06T08:11:32.983Z,66.78
2023-07-06T08:14:00.543Z,66.04
2023-07-06T08:16:29.915Z,61.57
2023-07-06T08:19:04.263Z,65.23
2023-07-06T08:22:04.597Z,65.04
2023-07-06T08:24:33.298Z,64.73
2023-07-06T08:27:00.835Z,66.04
2023-07-06T08:29:28.278Z,63.74
2023-07-06T08:31:57.545Z,64.71
2023-07-06T08:34:27.718Z,63.74
2023-07-06T08:36:56.208Z,62.84
2023-07-06T08:39:26.389Z,62.80
2023-07-06T08:41:56.370Z,61.18
2023-07-06T08:44:25.693Z,60.96
2023-07-06T08:46:56.478Z,61.92
2023-07-06T08:49:33.559Z,61.42
2023-07-06T08:52:06.695Z,59.25
2023-07-06T08:54:40.926Z,58.91
2023-07-06T08:57:17.215Z,58.61
2023-07-06T08:59:46.981Z,58.34
2023-07-06T09:02:18.589Z,58.07
2023-07-06T09:04:51.616Z,60.49
2023-07-06T09:07:25.607Z,57.16
2023-07-06T09:09:59.141Z,59.53
2023-07-06T09:12:37.546Z,58.18
2023-07-06T09:15:05.535Z,56.91
2023-07-06T09:17:33.833Z,58.45
2023-07-06T09:20:04.795Z,56.93
2023-07-06T09:22:32.191Z,58.31
2023-07-06T09:25:03.028Z,56.56
2023-07-06T09:27:30.491Z,55.38
2023-07-06T09:30:06.549Z,56.41
2023-07-06T09:32:35.866Z,54.40
2023-07-06T09:35:10.843Z,56.43
2023-07-06T09:37:46.817Z,54.57
2023-07-06T09:43:04.124Z,54.68
2023-07-06T09:45:32.385Z,52.05
2023-07-06T09:48:38.896Z,53.96
2023-07-06T09:51:10.652Z,54.31
2023-07-06T09:53:49.853Z,53.01
2023-07-06T09:56:17.710Z,53.53
2023-07-06T09:58:47.469Z,55.76
2023-07-06T10:01:36.606Z,55.14
2023-07-06T10:04:22.786Z,53.33
2023-07-06T10:07:02.764Z,53.58
2023-07-06T10:09:35.503Z,53.28
2023-07-06T10:12:18.994Z,52.25
2023-07-06T10:14:51.134Z,52.47
2023-07-06T10:17:44.268Z,53.04
2023-07-06T10:20:19.073Z,50.48
2023-07-06T10:23:05.737Z,50.70
2023-07-06T10:25:37.163Z,53.09
2023-07-06T10:28:11.989Z,52.22
2023-07-06T10:30:47.101Z,50.46
2023-07-06T10:33:38.916Z,44.99
2023-07-06T10:36:11.679Z,46.83
2023-07-06T10:38:39.113Z,50.26
2023-07-06T10:41:12.699Z,46.55
2023-07-06T10:43:42.109Z,48.74
2023-07-06T10:46:33.047Z,49.52
2023-07-06T10:49:21.244Z,49.53
2023-07-06T10:51:54.507Z,49.36
2023-07-06T10:54:21.901Z,47.90
2023-07-06T10:57:02.755Z,48.34
2023-07-06T10:59:42.826Z,50.42
2023-07-06T11:02:34.022Z,48.01
2023-07-06T11:05:16.627Z,46.35
2023-07-06T11:07:47.032Z,48.47
2023-07-06T11:10:14.375Z,48.63
2023-07-06T11:12:56.123Z,46.73
2023-07-06T11:15:46.421Z,46.12
2023-07-06T11:18:33.838Z,44.53
2023-07-06T11:21:10.023Z,46.00
2023-07-06T11:24:08.235Z,46.33
2023-07-06T11:27:05.371Z,49.14
2023-07-06T11:29:35.169Z,43.42
2023-07-06T11:32:20.662Z,43.83
2023-07-06T11:35:22.654Z,47.20
2023-07-06T11:38:14.975Z,44.46
2023-07-06T11:41:13.384Z,44.14
2023-07-06T11:44:00.879Z,43.52
2023-07-06T11:46:43.519Z,42.89
2023-07-06T11:49:44.454Z,41.80
2023-07-06T11:52:26.390Z,39.35
2023-07-06T11:55:06.637Z,40.05
2023-07-06T11:57:46.171Z,38.42
2023-07-06T12:00:44.373Z,40.81
2023-07-06T12:03:14.111Z,40.58
2023-07-06T12:05:46.045Z,40.17
2023-07-06T12:08:31.799Z,40.35
2023-07-06T12:11:03.976Z,38.27
2023-07-06T12:13:35.909Z,38.04
2023-07-06T12:16:14.546Z,37.66
2023-07-06T12:18:46.152Z,37.73
2023-07-06T12:21:36.571Z,36.63
2023-07-06T12:24:06.656Z,36.28
2023-07-06T12:26:36.168Z,36.54
2023-07-06T12:29:04.121Z,35.49
2023-07-06T12:31:32.222Z,35.74
2023-07-06T12:34:01.298Z,35.83
2023-07-06T12:36:34.757Z,36.19
2023-07-06T12:39:05.218Z,35.91
2023-07-06T12:41:38.361Z,35.21
2023-07-06T12:44:07.173Z,35.18
2023-07-06T12:46:35.894Z,33.59
2023-07-06T12:49:06.997Z,34.96
2023-07-06T12:51:37.718Z,36.49
2023-07-06T12:54:06.719Z,33.75
2023-07-06T12:56:35.532Z,35.84
2023-07-06T12:59:04.663Z,36.01
2023-07-06T13:01:34.308Z,34.91
2023-07-06T13:04:09.523Z,34.99
2023-07-06T13:06:42.033Z,34.14
2023-07-06T13:09:23.141Z,35.46
2023-07-06T13:11:54.082Z,35.21
2023-07-06T13:14:24.785Z,36.35
2023-07-06T13:16:57.652Z,36.44
2023-07-06T13:19:25.780Z,36.87
2023-07-06T13:21:56.734Z,35.48
2023-07-06T13:24:24.520Z,33.66
2023-07-06T13:26:52.393Z,34.58
2023-07-06T13:29:20.141Z,34.86
2023-07-06T13:31:55.253Z,34.76
2023-07-06T13:34:24.999Z,35.73
2023-07-06T13:36:54.521Z,34.25
2023-07-06T13:39:21.976Z,34.38
2023-07-06T13:41:50.933Z,35.00
2023-07-06T13:44:18.674Z,35.67
2023-07-06T13:46:48.374Z,36.27
2023-07-06T13:49:17.573Z,34.36
2023-07-06T13:51:45.137Z,35.48
2023-07-06T13:54:16.459Z,34.35
2023-07-06T13:56:49.702Z,33.47
2023-07-06T13:59:17.613Z,34.80
2023-07-06T14:01:48.429Z,32.90
2023-07-06T14:04:19.839Z,33.25
2023-07-06T14:06:47.241Z,33.67
2023-07-06T14:09:14.775Z,35.25
2023-07-06T14:11:42.600Z,34.06
2023-07-06T14:14:10.033Z,33.86
2023-07-06T14:16:37.788Z,35.50
2023-07-06T14:19:07.584Z,33.06
2023-07-06T14:21:35.222Z,34.15
2023-07-06T14:24:03.087Z,32.90
2023-07-06T14:26:31.247Z,33.19
2023-07-06T14:28:58.723Z,32.23
2023-07-06T14:31:28.686Z,32.10
2023-07-06T14:33:56.586Z,33.45
2023-07-06T14:36:23.967Z,33.93
2023-07-06T14:38:51.389Z,32.29
2023-07-06T14:41:19.069Z,31.16
2023-07-06T14:43:46.489Z,32.96
2023-07-06T14:46:13.981Z,31.49
2023-07-06T14:48:41.779Z,32.90
2023-07-06T14:51:11.039Z,32.49
2023-07-06T14:53:40.250Z,32.41
2023-07-06T14:56:09.554Z,31.89
2023-07-06T14:58:39.271Z,32.15
2023-07-06T15:01:07.749Z,30.16
2023-07-06T15:03:35.695Z,31.55
2023-07-06T15:06:08.139Z,33.09
2023-07-06T15:08:36.564Z,32.98
2023-07-06T15:11:03.996Z,31.43
2023-07-06T15:13:31.431Z,32.22
2023-07-06T15:16:00.971Z,32.51
2023-07-06T15:18:28.646Z,32.16
2023-07-06T15:21:16.875Z,32.06
2023-07-06T15:23:44.599Z,32.20
2023-07-06T15:26:12.353Z,32.15
2023-07-06T15:28:40.271Z,32.74
2023-07-06T15:31:09.811Z,32.90
2023-07-06T15:33:38.841Z,32.80
2023-07-06T15:36:06.380Z,32.53
2023-07-06T15:38:34.040Z,33.04
2023-07-06T15:41:01.529Z,32.19
2023-07-06T15:43:28.936Z,33.74
2023-07-06T15:45:57.661Z,32.62
2023-07-06T15:48:25.345Z,31.79
2023-07-06T15:50:53.623Z,32.95
2023-07-06T15:53:22.650Z,33.33
2023-07-06T15:55:57.367Z,33.75
2023-07-06T15:58:25.360Z,33.84
2023-07-06T16:00:54.353Z,33.79
2023-07-06T16:03:23.470Z,34.08
2023-07-06T16:05:51.208Z,32.85
2023-07-06T16:08:20.641Z,33.52
2023-07-06T16:10:51.347Z,32.93
2023-07-06T16:13:19.099Z,32.66
2023-07-06T16:15:46.657Z,32.35
2023-07-06T16:18:14.467Z,35.35
2023-07-06T16:20:51.061Z,33.30
2023-07-06T16:23:18.830Z,33.93
2023-07-06T16:25:46.475Z,35.85
2023-07-06T16:28:13.931Z,34.91
2023-07-06T16:30:41.742Z,35.67
2023-07-06T16:33:09.301Z,33.43
2023-07-06T16:35:40.312Z,34.88
2023-07-06T16:38:09.227Z,36.10
2023-07-06T16:40:36.652Z,34.33
2023-07-06T16:43:04.091Z,36.06
2023-07-06T16:45:33.820Z,34.83
2023-07-06T16:48:01.372Z,35.98
2023-07-06T16:50:28.985Z,34.95
2023-07-06T16:52:56.724Z,35.03
2023-07-06T16:55:24.228Z,35.82
2023-07-06T16:57:51.685Z,36.15
2023-07-06T17:00:19.420Z,35.29
2023-07-06T17:02:47.225Z,36.46
2023-07-06T17:05:14.844Z,36.68
2023-07-06T17:07:42.527Z,37.45
2023-07-06T17:10:10.319Z,36.50
2023-07-06T17:12:37.933Z,36.00
2023-07-06T17:15:06.130Z,36.10
2023-07-06T17:17:33.902Z,37.96
2023-07-06T17:20:01.387Z,36.38
2023-07-06T17:22:29.130Z,36.98
2023-07-06T17:24:56.651Z,37.58
2023-07-06T17:27:24.134Z,38.10
2023-07-06T17:29:52.172Z,36.02
2023-07-06T17:32:19.999Z,35.45
2023-07-06T17:34:48.217Z,36.21
2023-07-06T17:37:18.225Z,36.80
2023-07-06T17:39:46.141Z,36.80
2023-07-06T17:42:15.128Z,37.02
2023-07-06T17:44:45.351Z,39.43
2023-07-06T17:47:13.234Z,37.84
2023-07-06T17:49:41.194Z,38.24
2023-07-06T17:52:09.999Z,38.79
2023-07-06T17:54:37.706Z,40.24
2023-07-06T17:57:05.869Z,39.47
2023-07-06T17:59:35.072Z,40.09
2023-07-06T18:02:02.750Z,37.90
2023-07-06T18:04:31.113Z,38.40
2023-07-06T18:06:59.281Z,40.90
2023-07-06T18:09:29.664Z,40.62
2023-07-06T18:11:59.590Z,41.29
2023-07-06T18:14:27.615Z,41.32
2023-07-06T18:16:55.801Z,41.64
2023-07-06T18:19:24.224Z,41.10
2023-07-06T18:21:52.086Z,41.62
2023-07-06T18:24:19.530Z,41.32
2023-07-06T18:26:47.315Z,39.69
2023-07-06T18:29:14.754Z,41.19
2023-07-06T18:31:42.203Z,41.61
2023-07-06T18:34:09.935Z,41.63
2023-07-06T18:36:37.401Z,42.23
2023-07-06T18:39:07.316Z,41.94
2023-07-06T18:41:35.207Z,41.39
2023-07-06T18:44:02.895Z,41.52
2023-07-06T18:46:30.447Z,42.18
2023-07-06T18:48:58.441Z,43.29
2023-07-06T18:51:26.202Z,43.15
2023-07-06T18:53:53.820Z,42.99
2023-07-06T18:56:21.986Z,43.13
2023-07-06T18:58:50.865Z,43.13
2023-07-06T19:01:18.367Z,43.44
2023-07-06T19:03:46.997Z,44.16
2023-07-06T19:06:18.468Z,44.76
2023-07-06T19:08:48.380Z,45.29
2023-07-06T19:11:18.156Z,44.60
2023-07-06T19:13:46.811Z,44.58
2023-07-06T19:16:17.808Z,44.72
2023-07-06T19:18:46.345Z,45.46
2023-07-06T19:21:14.659Z,45.49
2023-07-06T19:23:43.370Z,45.46
2023-07-06T19:26:10.958Z,45.85
2023-07-06T19:28:38.496Z,46.34
2023-07-06T19:31:07.125Z,46.40
2023-07-06T19:33:35.720Z,46.19
2023-07-06T19:36:24.215Z,44.53
2023-07-06T19:38:53.436Z,45.76
2023-07-06T19:41:21.481Z,46.01
2023-07-06T19:43:52.385Z,46.01
2023-07-06T19:46:22.171Z,45.74
2023-07-06T19:48:50.660Z,45.91
2023-07-06T19:51:21.763Z,45.45
2023-07-06T19:53:53.008Z,45.17
2023-07-06T19:56:22.335Z,46.00
2023-07-06T19:58:54.045Z,46.63
2023-07-06T20:01:22.220Z,47.54
2023-07-06T20:03:50.212Z,47.77
2023-07-06T20:06:19.928Z,48.62
2023-07-06T20:08:48.616Z,48.55
2023-07-06T20:11:16.581Z,48.19
2023-07-06T20:13:44.611Z,48.30
2023-07-06T20:16:13.041Z,47.67
2023-07-06T20:18:42.655Z,47.79
2023-07-06T20:21:10.582Z,47.94
2023-07-06T20:23:39.047Z,48.26
2023-07-06T20:26:08.419Z,48.64
2023-07-06T20:28:36.654Z,49.51
2023-07-06T20:31:06.427Z,49.52
2023-07-06T20:33:36.547Z,49.65
2023-07-06T20:36:07.148Z,49.92
2023-07-06T20:38:36.236Z,50.25
2023-07-06T20:41:04.853Z,50.50
2023-07-06T20:43:32.544Z,50.53
2023-07-06T20:46:01.281Z,51.11
2023-07-06T20:48:29.237Z,51.35
2023-07-06T20:50:58.317Z,52.11
2023-07-06T20:53:27.499Z,52.24
2023-07-06T20:55:55.359Z,53.31
2023-07-06T20:58:23.172Z,53.45
2023-07-06T21:00:51.336Z,53.29
2023-07-06T21:03:18.755Z,53.21
2023-07-06T21:05:50.308Z,53.46
2023-07-06T21:08:18.270Z,54.33
2023-07-06T21:10:45.714Z,54.72
2023-07-06T21:13:13.124Z,53.96
2023-07-06T21:15:40.795Z,54.53
2023-07-06T21:18:08.264Z,54.89
2023-07-06T21:20:36.876Z,55.61
2023-07-06T21:23:05.178Z,56.16
2023-07-06T21:25:32.608Z,57.17
2023-07-06T21:28:00.039Z,56.40
2023-07-06T21:30:27.816Z,56.30
2023-07-06T21:32:55.275Z,56.18
2023-07-06T21:35:22.728Z,56.48
2023-07-06T21:37:52.007Z,56.39
2023-07-06T21:40:19.419Z,56.91
2023-07-06T21:42:46.807Z,57.48
2023-07-06T21:45:14.513Z,57.11
2023-07-06T21:47:42.153Z,57.26
2023-07-06T21:50:10.107Z,57.57
2023-07-06T21:52:37.781Z,57.35
2023-07-06T21:55:05.582Z,57.10
2023-07-06T21:57:32.944Z,57.44
2023-07-06T22:00:00.659Z,57.33
2023-07-06T22:02:28.226Z,57.14
2023-07-06T22:04:55.924Z,56.68
2023-07-06T22:07:23.358Z,57.10
2023-07-06T22:09:50.758Z,57.37
2023-07-06T22:12:18.439Z,56.71
2023-07-06T22:14:45.922Z,56.96
2023-07-06T22:17:13.307Z,56.90
2023-07-06T22:19:41.013Z,57.32
2023-07-06T22:22:08.418Z,57.53
2023-07-06T22:24:35.813Z,57.30
2023-07-06T22:27:03.704Z,57.55
2023-07-06T22:29:31.119Z,56.96
2023-07-06T22:31:58.700Z,57.27
2023-07-06T22:34:26.448Z,57.25
2023-07-06T22:36:53.862Z,57.32
2023-07-06T22:39:21.266Z,57.75
2023-07-06T22:41:48.938Z,57.60
2023-07-06T22:44:16.384Z,57.54
2023-07-06T22:46:43.830Z,57.43
2023-07-06T22:49:11.478Z,57.11
2023-07-06T22:51:40.629Z,57.07
2023-07-06T22:54:08.812Z,56.92
2023-07-06T22:56:36.453Z,56.58
2023-07-06T22:59:03.810Z,56.39
2023-07-06T23:01:31.288Z,56.55
2023-07-06T23:04:00.203Z,56.64
2023-07-06T23:06:28.795Z,56.98
2023-07-06T23:08:58.716Z,57.09
2023-07-06T23:11:26.464Z,57.26
2023-07-06T23:13:55.575Z,57.14
2023-07-06T23:16:26.411Z,57.25
2023-07-06T23:18:55.426Z,57.56
2023-07-06T23:21:24.269Z,57.08
2023-07-06T23:23:51.996Z,57.17
2023-07-06T23:26:24.659Z,57.69
2023-07-06T23:28:52.869Z,57.43
2023-07-06T23:31:29.179Z,57.65
2023-07-06T23:34:03.348Z,57.91
2023-07-06T23:36:31.068Z,57.80
2023-07-06T23:39:00.303Z,58.04
2023-07-06T23:41:27.993Z,57.91
2023-07-06T23:43:56.743Z,57.80
2023-07-06T23:46:24.251Z,57.96
2023-07-06T23:48:53.658Z,58.37
2023-07-06T23:51:40.055Z,58.45
2023-07-06T23:54:07.523Z,58.22
2023-07-06T23:56:35.254Z,58.60
2023-07-06T23:59:02.954Z,58.71
